»·PEaware :: N18AL KLAX-KLAS

N18AL :: KLAX-KLAS

FLIGHT INFORMATION

Flight Status: Arrived
Operator: Privately registered:
United States
More flights under this callsign
Pilot: Anonymous 25095 (25095)
Aircraft: SOCATA TBM-900
(TBM9)
More flights by this aircraft type
Origin: KLAX Los Angeles Intl
United States
Destination: KLAS McCarran Intl
United States
More flights between these airports :: More routes between these airports
Route: +SLI8 SLI POM DAG CRESO4
File this flight plan on PilotEdge
Remarks: RMK / SIMBRIEF
Altitude:
(Current/Filed)
23,000ft
Speed:
(Current/Filed)
293kts
Departed: 11-Jul-19 08:19 PM
Arrived: 11-Jul-19 10:01 PM
Distance/Time
Traveled:
204nm/1:42
Distance/Time
To Go:
Arrived

Flight Plot

Page will automatically refresh every two minutes.

Flight plan parsing failed; only flown route is shown


Map Options




Map Legend


Flown Route
Filed Route
Departure Airport
Arrival Airport
Navaid (VOR, NDB)
Fix

Horizontal Profiles

Position Reports

Time Latitude Longitude Heading Altitude Ground
Speed
11-Jul-19 19:44 33.933266 -118.397423 264 110ft 0kts
11-Jul-19 19:45 33.933266 -118.397423 264 110ft 0kts
11-Jul-19 19:46 33.933266 -118.397423 264 110ft 0kts
11-Jul-19 19:47 33.933266 -118.397423 264 110ft 0kts
11-Jul-19 19:48 33.933266 -118.397423 264 110ft 0kts
11-Jul-19 19:49 33.933266 -118.397423 264 110ft 0kts
11-Jul-19 19:50 33.933266 -118.397423 264 110ft 0kts
11-Jul-19 19:51 33.933266 -118.397423 264 110ft 0kts
11-Jul-19 19:52 33.933266 -118.397423 264 110ft 0kts
11-Jul-19 19:53 33.933266 -118.397423 264 110ft 0kts
11-Jul-19 19:54 33.933266 -118.397423 264 110ft 0kts
11-Jul-19 19:55 33.933266 -118.397423 264 110ft 0kts
11-Jul-19 19:56 33.933266 -118.397423 264 110ft 0kts
11-Jul-19 19:57 33.933266 -118.397423 264 110ft 0kts
11-Jul-19 19:58 33.933266 -118.397423 264 110ft 0kts
11-Jul-19 19:59 33.933266 -118.397423 264 110ft 0kts
11-Jul-19 20:00 33.933266 -118.397423 264 110ft 0kts
11-Jul-19 20:01 33.933266 -118.397423 264 110ft 0kts
11-Jul-19 20:02 33.933266 -118.397423 264 110ft 0kts
11-Jul-19 20:03 33.933266 -118.397423 264 110ft 0kts
11-Jul-19 20:04 33.933266 -118.397423 264 110ft 0kts
11-Jul-19 20:05 33.933266 -118.397423 264 110ft 0kts
11-Jul-19 20:06 33.933266 -118.397423 264 110ft 0kts
11-Jul-19 20:07 33.933266 -118.397423 264 110ft 0kts
11-Jul-19 20:08 33.933266 -118.397423 264 110ft 0kts
11-Jul-19 20:09 33.933266 -118.397423 264 110ft 0kts
11-Jul-19 20:10 33.933266 -118.397423 264 110ft 0kts
11-Jul-19 20:11 33.933725 -118.397991 332 110ft 13kts
11-Jul-19 20:12 33.934902 -118.394794 83 104ft 31kts
11-Jul-19 20:13 33.935591 -118.387955 83 101ft 37kts
11-Jul-19 20:14 33.936369 -118.382752 48 97ft 7kts
11-Jul-19 20:15 33.936392 -118.382721 48 97ft 0kts
11-Jul-19 20:16 33.936397 -118.382715 42 97ft 0kts
11-Jul-19 20:17 33.937075 -118.384257 267 98ft 40kts
11-Jul-19 20:18 33.935509 -118.399819 264 330ft 122kts
11-Jul-19 20:19 33.932516 -118.428982 264 999ft 155kts
11-Jul-19 20:20 33.928434 -118.466080 264 1772ft 163kts
11-Jul-19 20:21 33.906307 -118.493277 217 2873ft 155kts
11-Jul-19 20:22 33.880154 -118.514547 217 3904ft 167kts
11-Jul-19 20:23 33.850323 -118.538223 206 4952ft 196kts
11-Jul-19 20:35 33.933264 -118.397434 264 110ft 0kts
11-Jul-19 20:36 33.933264 -118.397434 264 110ft 0kts
11-Jul-19 20:37 33.933264 -118.397434 264 110ft 0kts
11-Jul-19 20:38 33.933264 -118.397434 264 110ft 0kts
11-Jul-19 20:39 33.933264 -118.397434 264 110ft 0kts
11-Jul-19 20:40 33.933264 -118.397434 264 110ft 0kts
11-Jul-19 20:41 33.933264 -118.397434 264 110ft 0kts
11-Jul-19 20:42 33.933130 -118.398902 265 114ft 16kts
11-Jul-19 20:43 33.934857 -118.395486 82 105ft 28kts
11-Jul-19 20:44 33.935863 -118.385366 83 99ft 38kts
11-Jul-19 20:45 33.936351 -118.382843 57 97ft 0kts
11-Jul-19 20:46 33.937321 -118.384448 264 98ft 44kts
11-Jul-19 20:47 33.934146 -118.411502 263 788ft 126kts
11-Jul-19 20:48 33.923753 -118.447509 215 2727ft 119kts
11-Jul-19 20:49 33.893793 -118.470817 214 4722ft 141kts
11-Jul-19 20:50 33.848475 -118.506054 214 4981ft 200kts
11-Jul-19 20:51 33.804335 -118.540291 214 4975ft 202kts
11-Jul-19 20:52 33.762667 -118.526116 122 5580ft 187kts
11-Jul-19 20:53 33.743776 -118.486818 122 6571ft 186kts
11-Jul-19 20:54 33.722269 -118.441968 122 7989ft 192kts
11-Jul-19 20:55 33.701110 -118.397661 122 9339ft 192kts
11-Jul-19 20:57 33.680787 -118.354957 121 10641ft 189kts
11-Jul-19 20:58 33.658807 -118.307963 111 12089ft 187kts
11-Jul-19 20:59 33.674508 -118.266290 23 13438ft 187kts
11-Jul-19 21:00 33.707311 -118.243792 54 14750ft 188kts
11-Jul-19 21:01 33.728678 -118.199549 65 16143ft 207kts
11-Jul-19 21:02 33.746691 -118.153135 67 17973ft 195kts
11-Jul-19 21:03 33.763647 -118.107730 67 19384ft 199kts
11-Jul-19 21:04 33.780564 -118.062106 67 20635ft 203kts
11-Jul-19 21:05 33.812359 -118.028476 38 21767ft 209kts
11-Jul-19 21:06 33.844599 -117.999336 38 22736ft 212kts
11-Jul-19 21:07 33.878514 -117.968620 38 22980ft 240kts
11-Jul-19 21:08 33.918830 -117.927062 46 22964ft 262kts
11-Jul-19 21:09 33.957291 -117.878677 47 22961ft 271kts
11-Jul-19 21:10 33.992921 -117.833436 47 22972ft 274kts
11-Jul-19 21:11 34.029440 -117.786959 47 22987ft 291kts
11-Jul-19 21:12 34.078939 -117.723891 47 22990ft 300kts
11-Jul-19 21:13 34.122358 -117.668468 47 22988ft 303kts
11-Jul-19 21:14 34.164014 -117.615221 47 22989ft 304kts
11-Jul-19 21:15 34.210517 -117.555665 47 22992ft 304kts
11-Jul-19 21:15 34.245108 -117.511308 47 22992ft 304kts
11-Jul-19 21:17 34.294126 -117.448339 47 23003ft 304kts
11-Jul-19 21:18 34.343254 -117.385120 47 23010ft 304kts
11-Jul-19 21:18 34.380206 -117.337488 47 23015ft 304kts
11-Jul-19 21:20 34.448603 -117.249160 47 23021ft 308kts
11-Jul-19 21:20 34.498874 -117.184091 47 23020ft 310kts
11-Jul-19 21:21 34.559506 -117.105455 48 23025ft 310kts
11-Jul-19 21:22 34.619963 -117.026869 48 23080ft 312kts
11-Jul-19 21:23 34.672152 -116.958843 48 23053ft 318kts
11-Jul-19 21:24 34.733895 -116.878176 47 22944ft 327kts
11-Jul-19 21:25 34.792012 -116.802195 47 22941ft 328kts
11-Jul-19 21:26 34.855255 -116.719244 47 22940ft 329kts
11-Jul-19 21:27 34.918395 -116.636250 47 22941ft 329kts
11-Jul-19 21:28 34.975645 -116.548941 63 22959ft 324kts
11-Jul-19 21:29 35.019069 -116.450882 62 22957ft 322kts
11-Jul-19 21:30 35.061337 -116.355527 63 23838ft 299kts
11-Jul-19 21:31 35.098659 -116.271096 63 23376ft 327kts
11-Jul-19 21:32 35.132899 -116.193509 63 22027ft 348kts
11-Jul-19 21:33 35.179286 -116.088077 63 19557ft 353kts
11-Jul-19 21:34 35.226383 -115.980681 62 17496ft 336kts
11-Jul-19 21:35 35.268382 -115.884619 62 16079ft 327kts
11-Jul-19 21:36 35.314753 -115.781181 50 14522ft 326kts
11-Jul-19 21:37 35.375033 -115.701333 47 13126ft 297kts
11-Jul-19 21:38 35.432974 -115.623977 47 11771ft 288kts
11-Jul-19 21:39 35.486300 -115.552614 47 10521ft 285kts
11-Jul-19 21:40 35.532758 -115.490353 47 10042ft 266kts
11-Jul-19 21:41 35.588681 -115.435483 31 9253ft 267kts
11-Jul-19 21:42 35.653738 -115.385903 31 7381ft 279kts
11-Jul-19 21:43 35.704188 -115.347186 31 7039ft 251kts
11-Jul-19 21:44 35.756969 -115.306632 31 7045ft 239kts
11-Jul-19 21:45 35.811641 -115.264580 31 7047ft 237kts
11-Jul-19 21:46 35.865379 -115.223216 31 7047ft 236kts
11-Jul-19 21:47 35.920733 -115.192968 21 7048ft 235kts
11-Jul-19 21:48 35.973912 -115.165870 21 6081ft 263kts
11-Jul-19 21:49 36.029166 -115.137384 21 5847ft 249kts
11-Jul-19 21:50 36.081599 -115.110455 21 5806ft 239kts
11-Jul-19 21:51 36.134514 -115.083785 21 5788ft 237kts
11-Jul-19 21:52 36.193865 -115.074652 311 3446ft 235kts
11-Jul-19 21:53 36.206144 -115.123479 289 2593ft 92kts
11-Jul-19 21:54 36.213087 -115.150617 273 2671ft 103kts
11-Jul-19 21:55 36.194416 -115.152933 164 3282ft 113kts
11-Jul-19 21:56 36.166146 -115.133105 177 3498ft 149kts
11-Jul-19 21:57 36.142429 -115.136034 194 3133ft 98kts
11-Jul-19 21:58 36.120447 -115.144380 201 2559ft 84kts
11-Jul-19 21:59 36.101527 -115.154960 203 2161ft 79kts
11-Jul-19 22:00 36.090753 -115.161587 203 2118ft 16kts
11-Jul-19 22:01 36.086921 -115.165231 203 2139ft 24kts
11-Jul-19 22:02 36.083551 -115.171411 277 2167ft 15kts
11-Jul-19 22:03 36.083637 -115.172557 271 2169ft 0kts
11-Jul-19 22:04 36.083637 -115.172557 271 2169ft 0kts
11-Jul-19 22:05 36.083637 -115.172557 271 2169ft 0kts

Navigation Log

Ident Type
Flight plan parsing failed, navigation log unavailable